Time;durP1;ratioP1;P1;durP2;ratioP2;P2;SDS_P1;SDS_P2;PMS_P1;PMS_P2;Temp;Humidity;BMP_temperature;BMP_pressure;BME280_temperature;BME280_humidity;BME280_pressure;Samples;Min_cycle;Max_cycle;Signal;HPM_P1;HPM_P2
2021/05/22 00:02:20;;;;;;;0.10;0.10;;;11.50;99.90;;;;;;5046182;28;20189;-80
2021/05/22 00:04:46;;;;;;;0.00;0.00;;;11.60;99.90;;;;;;5047979;28;20213;-81
2021/05/22 00:07:12;;;;;;;0.20;0.10;;;11.60;99.90;;;;;;5049851;28;20283;-80
2021/05/22 00:09:37;;;;;;;0.10;0.10;;;11.50;99.90;;;;;;5045205;28;20255;-80
2021/05/22 00:12:03;;;;;;;0.10;0.10;;;11.50;99.90;;;;;;5047697;28;20192;-80
2021/05/22 00:14:29;;;;;;;0.10;0.10;;;11.50;99.90;;;;;;5048492;28;20205;-80
2021/05/22 00:16:54;;;;;;;0.20;0.20;;;11.40;99.90;;;;;;5047310;28;20202;-80
2021/05/22 00:19:20;;;;;;;0.10;0.10;;;11.40;99.90;;;;;;5036506;28;20199;-80
2021/05/22 00:21:46;;;;;;;1.80;0.20;;;11.50;99.90;;;;;;5046932;28;20215;-80
2021/05/22 00:24:12;;;;;;;0.10;0.10;;;11.60;99.90;;;;;;5060140;28;20186;-80
2021/05/22 00:26:38;;;;;;;0.10;0.10;;;11.50;99.90;;;;;;5052953;28;20209;-80
2021/05/22 00:29:04;;;;;;;0.20;0.20;;;11.30;99.90;;;;;;5051379;28;20204;-80
2021/05/22 00:31:29;;;;;;;0.00;0.00;;;11.00;99.90;;;;;;5040019;28;20186;-79
2021/05/22 00:33:55;;;;;;;0.10;0.10;;;10.80;99.90;;;;;;5044002;28;20187;-81
2021/05/22 00:36:20;;;;;;;0.40;0.40;;;10.70;99.90;;;;;;5050951;28;20193;-81
2021/05/22 00:38:46;;;;;;;0.20;0.20;;;10.90;99.90;;;;;;5052379;28;20221;-78
2021/05/22 00:41:12;;;;;;;0.97;0.60;;;11.10;99.90;;;;;;5060479;28;20193;-79
2021/05/22 00:43:37;;;;;;;0.00;0.00;;;11.20;99.90;;;;;;5066331;28;20197;-79
2021/05/22 00:46:04;;;;;;;0.10;0.10;;;11.20;99.90;;;;;;5063670;28;20217;-80
2021/05/22 00:48:30;;;;;;;0.10;0.10;;;11.30;99.90;;;;;;5052820;28;20700;-80
2021/05/22 00:50:56;;;;;;;0.00;0.00;;;11.40;99.90;;;;;;5051540;28;20185;-78
2021/05/22 00:53:22;;;;;;;0.20;0.20;;;11.50;99.90;;;;;;5066207;28;20249;-81
2021/05/22 00:55:49;;;;;;;0.10;0.10;;;11.40;99.90;;;;;;5064681;28;20236;-80
2021/05/22 00:58:15;;;;;;;0.20;0.20;;;11.40;99.90;;;;;;5063781;28;20197;-79
2021/05/22 01:00:51;;;;;;;0.10;0.10;;;11.60;99.90;;;;;;5056796;28;20630;-79
2021/05/22 01:03:23;;;;;;;0.03;0.03;;;11.70;99.90;;;;;;5061660;28;20181;-79
2021/05/22 01:05:48;;;;;;;0.10;0.10;;;11.50;99.90;;;;;;5061091;28;20221;-79
2021/05/22 01:08:20;;;;;;;0.00;0.00;;;11.50;99.90;;;;;;5056868;28;20221;-80
2021/05/22 01:10:57;;;;;;;0.40;0.40;;;11.40;99.90;;;;;;5060939;28;20212;-80
2021/05/22 01:13:24;;;;;;;0.10;0.10;;;11.30;99.90;;;;;;5054163;28;20182;-80
2021/05/22 01:15:54;;;;;;;0.00;0.00;;;11.40;99.90;;;;;;5059258;28;20177;-81
2021/05/22 01:18:20;;;;;;;0.00;0.00;;;11.50;99.90;;;;;;5061528;28;20200;-80
2021/05/22 01:20:53;;;;;;;0.10;0.10;;;11.50;99.90;;;;;;5058078;28;20197;-80
2021/05/22 01:23:26;;;;;;;0.27;0.10;;;11.50;99.90;;;;;;5057511;28;20227;-79
2021/05/22 01:25:53;;;;;;;0.10;0.10;;;11.60;99.90;;;;;;5058140;28;20232;-80
2021/05/22 01:28:19;;;;;;;0.07;0.07;;;11.70;99.90;;;;;;5050896;28;20244;-80
2021/05/22 01:30:47;;;;;;;0.00;0.00;;;11.80;99.90;;;;;;5051366;28;20603;-80
2021/05/22 01:33:12;;;;;;;0.00;0.00;;;11.80;99.90;;;;;;5054609;28;20182;-80
2021/05/22 01:35:39;;;;;;;0.20;0.20;;;11.40;99.90;;;;;;5054936;28;20192;-80
2021/05/22 01:38:05;;;;;;;0.10;0.10;;;11.50;99.90;;;;;;5054373;28;20673;-80
2021/05/22 01:40:31;;;;;;;0.00;0.00;;;11.70;99.90;;;;;;5052030;28;20231;-80
2021/05/22 01:42:59;;;;;;;0.00;0.00;;;11.80;99.90;;;;;;5054418;28;20676;-80
2021/05/22 01:45:33;;;;;;;0.00;0.00;;;11.90;99.90;;;;;;5056013;28;20216;-80
2021/05/22 01:48:01;;;;;;;0.00;0.00;;;12.00;99.90;;;;;;5050712;28;20200;-80
2021/05/22 01:50:31;;;;;;;0.10;0.10;;;11.60;99.90;;;;;;5054723;28;20239;-81
2021/05/22 01:52:58;;;;;;;0.10;0.10;;;11.80;99.90;;;;;;5046226;28;20192;-81
2021/05/22 01:55:27;;;;;;;0.20;0.20;;;11.80;99.90;;;;;;5056997;28;20565;-80
2021/05/22 01:57:53;;;;;;;0.07;0.07;;;11.80;99.90;;;;;;5053217;28;20206;-81
2021/05/22 02:00:19;;;;;;;0.10;0.10;;;12.00;99.90;;;;;;5048610;28;20182;-80
2021/05/22 02:03:00;;;;;;;0.20;0.20;;;12.00;99.90;;;;;;5055288;28;20186;-79
2021/05/22 02:05:27;;;;;;;0.10;0.10;;;12.00;99.90;;;;;;5056240;28;20768;-79
2021/05/22 02:07:56;;;;;;;0.37;0.30;;;12.00;99.90;;;;;;5055854;28;20244;-80
2021/05/22 02:10:23;;;;;;;0.10;0.10;;;11.90;99.90;;;;;;5055300;28;20204;-81
2021/05/22 02:12:50;;;;;;;0.63;0.17;;;11.80;99.90;;;;;;5047987;28;20182;-80
2021/05/22 02:15:17;;;;;;;2.83;0.60;;;11.70;99.90;;;;;;5044062;28;20226;-80
2021/05/22 02:17:45;;;;;;;0.10;0.10;;;11.70;99.90;;;;;;5041769;28;20272;-81
2021/05/22 02:20:14;;;;;;;0.10;0.10;;;11.60;99.90;;;;;;5051659;28;20232;-80
2021/05/22 02:22:43;;;;;;;0.30;0.30;;;11.50;99.90;;;;;;5055220;28;20288;-78
2021/05/22 02:25:11;;;;;;;0.30;0.30;;;11.40;99.90;;;;;;5051071;28;20625;-80
2021/05/22 02:27:37;;;;;;;0.10;0.10;;;11.40;99.90;;;;;;5051702;28;20285;-80
2021/05/22 02:30:10;;;;;;;0.10;0.10;;;11.30;99.90;;;;;;5051992;28;20645;-81
2021/05/22 02:32:39;;;;;;;2.27;0.63;;;11.40;99.90;;;;;;5054988;28;20209;-78
2021/05/22 02:35:06;;;;;;;0.10;0.10;;;11.30;99.90;;;;;;5055101;28;20182;-80
2021/05/22 02:37:33;;;;;;;0.10;0.10;;;11.30;99.90;;;;;;5051289;28;20288;-80
2021/05/22 02:40:02;;;;;;;0.10;0.10;;;11.30;99.90;;;;;;5041570;28;20376;-80
2021/05/22 02:42:31;;;;;;;0.10;0.10;;;11.40;99.90;;;;;;5059521;28;20195;-80
2021/05/22 02:44:58;;;;;;;0.30;0.30;;;11.40;99.90;;;;;;5054993;28;20189;-81
2021/05/22 02:47:26;;;;;;;0.10;0.10;;;11.40;99.90;;;;;;5051720;28;20283;-81
2021/05/22 02:49:58;;;;;;;0.10;0.10;;;11.30;99.90;;;;;;5046773;28;20178;-79
2021/05/22 02:52:26;;;;;;;0.10;0.10;;;11.20;99.90;;;;;;5044709;28;20178;-80
2021/05/22 02:54:53;;;;;;;0.10;0.10;;;11.00;99.90;;;;;;5050874;28;20173;-80
2021/05/22 02:57:20;;;;;;;0.20;0.20;;;10.90;99.90;;;;;;5041032;28;20240;-80
2021/05/22 02:59:49;;;;;;;4.53;0.17;;;10.90;99.90;;;;;;5052745;28;20240;-81
2021/05/22 03:02:16;;;;;;;0.07;0.07;;;10.90;99.90;;;;;;5048886;28;20687;-80
2021/05/22 03:04:43;;;;;;;0.10;0.10;;;10.90;99.90;;;;;;5048812;28;20185;-80
2021/05/22 03:07:08;;;;;;;0.17;0.17;;;10.90;99.90;;;;;;5050955;28;20213;-80
2021/05/22 03:09:34;;;;;;;0.10;0.10;;;10.80;99.90;;;;;;5054684;28;20181;-79
2021/05/22 03:12:00;;;;;;;0.00;0.00;;;10.70;99.90;;;;;;5056531;28;20190;-80
2021/05/22 03:14:26;;;;;;;0.00;0.00;;;10.60;99.90;;;;;;5044474;28;20185;-80
2021/05/22 03:16:52;;;;;;;0.00;0.00;;;10.50;99.90;;;;;;5052822;28;20197;-79
2021/05/22 03:19:17;;;;;;;0.10;0.10;;;10.40;99.90;;;;;;5051430;28;20201;-81
2021/05/22 03:21:43;;;;;;;0.47;0.47;;;10.40;99.90;;;;;;5052002;28;20208;-81
2021/05/22 03:24:09;;;;;;;0.10;0.10;;;10.30;99.90;;;;;;5047995;28;20182;-83
2021/05/22 03:26:34;;;;;;;0.10;0.10;;;10.20;99.90;;;;;;5052505;28;20219;-83
2021/05/22 03:29:00;;;;;;;0.10;0.10;;;10.20;99.90;;;;;;5039833;28;20205;-80
2021/05/22 03:31:25;;;;;;;0.10;0.10;;;10.20;99.90;;;;;;5037933;28;20282;-79
2021/05/22 03:33:51;;;;;;;0.10;0.10;;;10.10;99.90;;;;;;5048488;28;20214;-80
2021/05/22 03:36:17;;;;;;;0.10;0.10;;;9.90;99.90;;;;;;5045960;28;20189;-80
2021/05/22 03:38:42;;;;;;;0.10;0.10;;;9.80;99.90;;;;;;5049422;28;20287;-81
2021/05/22 03:41:08;;;;;;;0.60;0.20;;;9.80;99.90;;;;;;5049600;28;20219;-81
2021/05/22 03:43:33;;;;;;;0.30;0.20;;;9.90;99.90;;;;;;5049427;28;20192;-81
2021/05/22 03:45:59;;;;;;;0.00;0.00;;;9.80;99.90;;;;;;5051287;28;20249;-81
2021/05/22 03:48:25;;;;;;;0.00;0.00;;;9.80;99.90;;;;;;5049669;28;20966;-81
2021/05/22 03:50:51;;;;;;;0.63;0.23;;;9.90;99.90;;;;;;5051541;28;20299;-81
2021/05/22 03:53:16;;;;;;;0.00;0.00;;;9.90;99.90;;;;;;5051894;28;20554;-81
2021/05/22 03:55:42;;;;;;;0.13;0.13;;;9.90;99.90;;;;;;5061043;28;20192;-81
2021/05/22 03:58:08;;;;;;;0.10;0.10;;;10.00;99.90;;;;;;5061803;28;20200;-81
2021/05/22 04:00:34;;;;;;;0.20;0.20;;;10.00;99.90;;;;;;5059007;28;20197;-81
2021/05/22 04:03:00;;;;;;;0.10;0.10;;;10.00;99.90;;;;;;5057635;28;20288;-81
2021/05/22 04:05:25;;;;;;;0.03;0.03;;;10.10;99.90;;;;;;5056574;28;20239;-80
2021/05/22 04:07:51;;;;;;;0.10;0.10;;;10.10;99.90;;;;;;5055647;28;20240;-80
2021/05/22 04:10:17;;;;;;;0.10;0.10;;;10.20;99.90;;;;;;5059458;28;20198;-81
2021/05/22 04:12:42;;;;;;;0.00;0.00;;;10.20;99.90;;;;;;5047891;28;20188;-81
2021/05/22 04:15:08;;;;;;;0.10;0.10;;;10.30;99.90;;;;;;5054163;28;20255;-80
2021/05/22 04:17:34;;;;;;;0.10;0.10;;;10.30;99.90;;;;;;5055378;28;20243;-80
2021/05/22 04:20:00;;;;;;;0.10;0.10;;;10.40;99.90;;;;;;5060355;28;20199;-81
2021/05/22 04:22:25;;;;;;;0.07;0.07;;;10.30;99.90;;;;;;5059454;28;20294;-79
2021/05/22 04:24:51;;;;;;;0.10;0.10;;;10.40;99.90;;;;;;5063060;28;20268;-79
2021/05/22 04:27:16;;;;;;;0.20;0.20;;;10.40;99.90;;;;;;5058766;28;20583;-78
2021/05/22 04:29:42;;;;;;;0.00;0.00;;;10.50;99.90;;;;;;5051923;28;20256;-82
2021/05/22 04:32:07;;;;;;;0.10;0.10;;;10.60;99.90;;;;;;5053012;28;20194;-80
2021/05/22 04:34:33;;;;;;;0.10;0.10;;;10.70;99.90;;;;;;5057119;28;20191;-81
2021/05/22 04:36:59;;;;;;;0.10;0.10;;;10.80;99.90;;;;;;5055372;28;20212;-82
2021/05/22 04:39:24;;;;;;;0.00;0.00;;;10.80;99.90;;;;;;5051878;28;20555;-81
2021/05/22 04:41:50;;;;;;;0.20;0.20;;;11.00;99.90;;;;;;5050331;28;20267;-82
2021/05/22 04:44:16;;;;;;;0.10;0.10;;;11.00;99.90;;;;;;5054288;28;20212;-81
2021/05/22 04:46:41;;;;;;;0.40;0.03;;;11.10;99.90;;;;;;5049141;28;20296;-84
2021/05/22 04:49:07;;;;;;;0.10;0.10;;;11.20;99.90;;;;;;5044743;28;20201;-84
2021/05/22 04:51:33;;;;;;;0.10;0.10;;;11.20;99.90;;;;;;5052336;28;20193;-84
2021/05/22 04:54:08;;;;;;;1.60;0.20;;;11.50;99.90;;;;;;5055113;28;20197;-83
2021/05/22 04:56:34;;;;;;;0.10;0.10;;;11.60;99.90;;;;;;5052328;28;20185;-84
2021/05/22 04:59:00;;;;;;;0.60;0.30;;;11.60;99.90;;;;;;5048474;28;20220;-81
2021/05/22 05:01:26;;;;;;;4.40;0.33;;;11.80;99.90;;;;;;5053158;28;20216;-80
2021/05/22 05:03:52;;;;;;;0.43;0.43;;;11.90;99.90;;;;;;5047935;28;20186;-82
2021/05/22 05:06:17;;;;;;;0.37;0.37;;;11.80;99.90;;;;;;5054847;28;20202;-81
2021/05/22 05:08:43;;;;;;;0.10;0.10;;;11.80;99.90;;;;;;5053916;28;20213;-82
2021/05/22 05:11:09;;;;;;;0.10;0.10;;;11.80;99.90;;;;;;5053747;28;20236;-81
2021/05/22 05:13:34;;;;;;;0.93;0.93;;;11.80;99.90;;;;;;5051729;28;20184;-81
2021/05/22 05:16:01;;;;;;;0.47;0.23;;;11.70;99.90;;;;;;5054272;28;20201;-81
2021/05/22 05:18:27;;;;;;;0.20;0.20;;;11.70;99.90;;;;;;5045485;28;20691;-84
2021/05/22 05:20:53;;;;;;;0.20;0.20;;;11.60;99.90;;;;;;5044101;28;20193;-84
2021/05/22 05:23:18;;;;;;;0.10;0.10;;;11.40;99.90;;;;;;5053135;28;20189;-82
2021/05/22 05:25:44;;;;;;;0.10;0.10;;;11.50;99.90;;;;;;5047912;28;20240;-82
2021/05/22 05:28:10;;;;;;;0.10;0.10;;;11.40;99.90;;;;;;5049985;28;20683;-82
2021/05/22 05:30:35;;;;;;;0.10;0.10;;;11.50;99.90;;;;;;5048327;28;20235;-83
2021/05/22 05:33:01;;;;;;;0.07;0.07;;;11.60;99.90;;;;;;5053111;28;20673;-82
2021/05/22 05:35:27;;;;;;;1.40;1.20;;;11.80;99.90;;;;;;5051043;28;20186;-82
2021/05/22 05:37:52;;;;;;;0.10;0.10;;;11.90;99.90;;;;;;5040532;28;20211;-82
2021/05/22 05:40:21;;;;;;;0.73;0.20;;;11.90;99.90;;;;;;5049195;28;20326;-81
2021/05/22 05:42:48;;;;;;;1.47;0.20;;;11.90;99.90;;;;;;5045850;28;20189;-82
2021/05/22 05:45:14;;;;;;;0.20;0.20;;;11.90;99.90;;;;;;5050858;28;20217;-80
2021/05/22 05:47:40;;;;;;;0.20;0.20;;;12.20;99.90;;;;;;5045499;28;20205;-79
2021/05/22 05:50:06;;;;;;;0.13;0.13;;;12.70;99.90;;;;;;5046011;28;20197;-80
2021/05/22 05:52:31;;;;;;;0.10;0.10;;;12.50;99.90;;;;;;5047596;28;20701;-80
2021/05/22 05:54:58;;;;;;;1.30;0.20;;;12.60;99.90;;;;;;5047274;28;20277;-84
2021/05/22 05:57:24;;;;;;;0.33;0.33;;;12.70;99.90;;;;;;5046007;28;20202;-82
2021/05/22 05:59:50;;;;;;;0.17;0.17;;;12.60;99.90;;;;;;5051435;28;20204;-84
2021/05/22 06:02:16;;;;;;;0.10;0.10;;;12.50;99.90;;;;;;5051723;28;20646;-84
2021/05/22 06:04:41;;;;;;;0.10;0.10;;;12.70;99.90;;;;;;5049186;28;20560;-84
2021/05/22 06:07:07;;;;;;;0.10;0.10;;;12.60;99.90;;;;;;5051063;28;20217;-82
2021/05/22 06:09:33;;;;;;;1.70;0.67;;;12.80;99.90;;;;;;5046830;28;20272;-81
2021/05/22 06:11:59;;;;;;;0.13;0.13;;;12.80;99.90;;;;;;5045677;28;20182;-84
2021/05/22 06:14:31;;;;;;;0.03;0.03;;;13.00;99.90;;;;;;5048183;28;20724;-83
2021/05/22 06:16:56;;;;;;;0.47;0.20;;;13.10;99.90;;;;;;5050908;28;20200;-82
2021/05/22 06:19:22;;;;;;;1.27;0.30;;;12.90;99.90;;;;;;5043740;28;20183;-79
2021/05/22 06:21:47;;;;;;;0.10;0.10;;;13.10;99.90;;;;;;5048632;28;20204;-82
2021/05/22 06:24:13;;;;;;;0.33;0.20;;;13.20;99.90;;;;;;5049275;28;20193;-81
2021/05/22 06:26:39;;;;;;;0.10;0.10;;;13.50;99.90;;;;;;5053039;28;21742;-78
2021/05/22 06:29:04;;;;;;;0.20;0.20;;;13.40;99.90;;;;;;5054335;28;20198;-81
2021/05/22 06:31:30;;;;;;;0.13;0.13;;;13.30;99.90;;;;;;5052003;28;20658;-79
2021/05/22 06:33:56;;;;;;;0.20;0.20;;;13.30;99.90;;;;;;5053511;28;20626;-81
2021/05/22 06:36:21;;;;;;;0.20;0.20;;;13.40;99.90;;;;;;5052889;28;20373;-81
2021/05/22 06:38:47;;;;;;;0.10;0.10;;;13.30;99.90;;;;;;5051780;28;20218;-81
2021/05/22 06:41:12;;;;;;;0.63;0.10;;;13.10;99.90;;;;;;5051376;28;20237;-79
2021/05/22 06:43:38;;;;;;;0.00;0.00;;;13.10;99.90;;;;;;5052806;28;20208;-81
2021/05/22 06:48:38;;;;;;;0.10;0.10;;;13.00;99.90;;;;;;5053662;28;20247;-81
2021/05/22 06:51:04;;;;;;;0.00;0.00;;;12.90;99.90;;;;;;5052380;28;20213;-81
2021/05/22 06:53:32;;;;;;;0.10;0.10;;;12.70;99.90;;;;;;5053025;28;20535;-81
2021/05/22 06:55:59;;;;;;;0.07;0.07;;;12.50;99.90;;;;;;5052979;28;20220;-81
2021/05/22 06:58:24;;;;;;;0.00;0.00;;;12.30;99.90;;;;;;5050665;28;20742;-81
2021/05/22 07:00:50;;;;;;;0.30;0.20;;;12.40;99.90;;;;;;5053009;28;20281;-78
2021/05/22 07:03:16;;;;;;;0.30;0.20;;;12.50;99.90;;;;;;5052980;28;20190;-81
2021/05/22 07:05:41;;;;;;;0.10;0.10;;;12.40;99.90;;;;;;5051511;28;20216;-80
2021/05/22 07:08:07;;;;;;;0.10;0.10;;;12.40;99.90;;;;;;5052609;28;20217;-79
2021/05/22 07:10:33;;;;;;;2.27;0.53;;;12.40;99.90;;;;;;5053464;28;20182;-81
2021/05/22 07:12:59;;;;;;;0.10;0.10;;;12.40;99.90;;;;;;5053848;28;20239;-81
2021/05/22 07:15:24;;;;;;;0.83;0.20;;;12.50;99.90;;;;;;5052673;28;20217;-80
2021/05/22 07:17:50;;;;;;;0.10;0.10;;;12.50;99.90;;;;;;5067454;28;20262;-81
2021/05/22 07:20:16;;;;;;;0.10;0.10;;;12.50;99.90;;;;;;5053720;28;20200;-81
2021/05/22 07:22:43;;;;;;;0.00;0.00;;;12.40;99.90;;;;;;5051511;28;20213;-79
2021/05/22 07:25:09;;;;;;;0.10;0.10;;;12.30;99.90;;;;;;5052078;28;20197;-81
2021/05/22 07:27:36;;;;;;;0.10;0.10;;;12.20;99.90;;;;;;5051973;28;20313;-81
2021/05/22 07:30:14;;;;;;;0.10;0.10;;;12.20;99.90;;;;;;5051755;28;20239;-81
2021/05/22 07:32:40;;;;;;;0.63;0.30;;;12.10;99.90;;;;;;5052399;28;20610;-81
2021/05/22 07:35:07;;;;;;;0.10;0.10;;;12.20;99.90;;;;;;5052823;28;20177;-81
2021/05/22 07:37:33;;;;;;;0.67;0.67;;;12.10;99.90;;;;;;5052705;28;20197;-81
2021/05/22 07:39:59;;;;;;;0.30;0.30;;;12.10;99.90;;;;;;5048763;28;20699;-81
2021/05/22 07:42:25;;;;;;;0.10;0.10;;;12.20;99.90;;;;;;5052168;28;20190;-81
2021/05/22 07:44:52;;;;;;;0.10;0.10;;;12.20;99.90;;;;;;5052855;28;20188;-81
2021/05/22 07:47:18;;;;;;;0.10;0.10;;;12.20;99.90;;;;;;5051290;28;20210;-81
2021/05/22 07:49:44;;;;;;;0.00;0.00;;;12.20;99.90;;;;;;5052268;28;20182;-81
2021/05/22 07:52:11;;;;;;;0.50;0.50;;;12.20;99.90;;;;;;5052008;28;20557;-81
2021/05/22 07:54:39;;;;;;;0.23;0.23;;;12.20;99.90;;;;;;5051764;28;20287;-86
2021/05/22 07:57:07;;;;;;;0.10;0.10;;;12.20;99.90;;;;;;5053007;28;20203;-84
2021/05/22 07:59:33;;;;;;;0.20;0.20;;;12.20;99.90;;;;;;5053040;28;20738;-84
2021/05/22 08:01:59;;;;;;;0.07;0.07;;;12.30;99.90;;;;;;5052682;28;20189;-82
2021/05/22 08:04:25;;;;;;;0.13;0.13;;;12.50;99.90;;;;;;5038295;28;20186;-83
2021/05/22 08:06:50;;;;;;;0.10;0.10;;;12.50;99.90;;;;;;5051709;28;20215;-83
2021/05/22 08:09:16;;;;;;;0.00;0.00;;;12.50;99.90;;;;;;5053110;28;20186;-83
2021/05/22 08:11:41;;;;;;;0.00;0.00;;;12.60;99.90;;;;;;5044014;28;20217;-82
2021/05/22 08:14:07;;;;;;;0.10;0.10;;;12.70;99.90;;;;;;5047310;28;20662;-82
2021/05/22 08:16:34;;;;;;;0.10;0.10;;;12.90;99.90;;;;;;5053161;28;20203;-82
2021/05/22 08:19:00;;;;;;;0.00;0.00;;;12.70;99.90;;;;;;5056166;28;20205;-82
2021/05/22 08:21:26;;;;;;;0.10;0.10;;;12.60;99.90;;;;;;5056750;28;20198;-83
2021/05/22 08:23:51;;;;;;;0.10;0.10;;;12.60;99.90;;;;;;5053416;28;20184;-85
2021/05/22 08:26:17;;;;;;;0.73;0.73;;;12.70;99.90;;;;;;5051815;28;20227;-82
2021/05/22 08:28:42;;;;;;;0.03;0.03;;;12.80;99.90;;;;;;5051703;28;20206;-83
2021/05/22 08:31:08;;;;;;;0.20;0.20;;;12.80;99.90;;;;;;5052684;28;20523;-83
2021/05/22 08:33:34;;;;;;;2.43;0.63;;;12.90;99.90;;;;;;5052925;28;20225;-84
2021/05/22 08:35:59;;;;;;;0.50;0.50;;;12.90;99.90;;;;;;5051626;28;20196;-82
2021/05/22 08:38:25;;;;;;;0.20;0.20;;;12.80;99.90;;;;;;5051528;28;20698;-82
2021/05/22 08:40:55;;;;;;;0.13;0.13;;;12.70;99.90;;;;;;5052715;28;20565;-84
2021/05/22 08:43:21;;;;;;;2.23;0.47;;;12.70;99.90;;;;;;5052400;28;20700;-83
2021/05/22 08:45:46;;;;;;;0.10;0.10;;;12.70;99.90;;;;;;5051722;28;20209;-82
2021/05/22 08:48:12;;;;;;;0.00;0.00;;;12.90;99.90;;;;;;5051806;28;20746;-83
2021/05/22 08:50:37;;;;;;;0.10;0.10;;;13.10;99.90;;;;;;5051266;28;20178;-83
2021/05/22 08:53:03;;;;;;;0.17;0.17;;;13.20;99.90;;;;;;5051189;28;20190;-83
2021/05/22 08:55:29;;;;;;;0.10;0.10;;;13.20;99.90;;;;;;5051499;28;20186;-83
2021/05/22 08:57:54;;;;;;;0.93;0.63;;;13.20;99.90;;;;;;5052682;28;20285;-83
2021/05/22 09:00:24;;;;;;;0.50;0.30;;;13.10;99.90;;;;;;5051828;28;20186;-85
2021/05/22 09:02:49;;;;;;;0.10;0.10;;;13.00;99.90;;;;;;5051950;28;20181;-83
2021/05/22 09:05:15;;;;;;;0.10;0.10;;;12.90;99.90;;;;;;5056558;28;20181;-83
2021/05/22 09:07:44;;;;;;;0.40;0.40;;;12.90;99.90;;;;;;5054739;28;20277;-83
2021/05/22 09:11:00;;;;;;;0.10;0.10;;;12.90;99.90;;;;;;5044062;28;20179;-82
2021/05/22 09:13:28;;;;;;;0.07;0.07;;;12.90;99.90;;;;;;5048915;28;20296;-82
2021/05/22 09:15:59;;;;;;;1.40;0.57;;;12.90;99.90;;;;;;5057605;28;20272;-82
2021/05/22 09:18:31;;;;;;;0.20;0.20;;;12.90;99.90;;;;;;5057028;28;20208;-83
2021/05/22 09:20:59;;;;;;;1.70;1.60;;;12.90;99.90;;;;;;5056483;28;20673;-83
2021/05/22 09:23:31;;;;;;;0.10;0.10;;;13.00;99.90;;;;;;5056110;28;20182;-84
2021/05/22 09:26:03;;;;;;;0.10;0.10;;;13.10;99.90;;;;;;5056283;28;20207;-82
2021/05/22 09:28:32;;;;;;;2.83;0.30;;;13.20;99.90;;;;;;5042963;28;20206;-83
2021/05/22 09:30:58;;;;;;;0.27;0.27;;;13.20;99.90;;;;;;5055881;28;20267;-83
2021/05/22 09:33:27;;;;;;;0.10;0.10;;;13.20;99.90;;;;;;5054966;28;20664;-82
2021/05/22 09:36:05;;;;;;;0.00;0.00;;;13.20;99.90;;;;;;5054533;28;20238;-83
2021/05/22 09:38:45;;;;;;;0.10;0.10;;;13.20;99.90;;;;;;5055582;28;20198;-83
2021/05/22 09:41:25;;;;;;;0.10;0.10;;;13.00;99.90;;;;;;5054528;28;20189;-83
2021/05/22 09:44:26;;;;;;;0.10;0.10;;;13.00;99.90;;;;;;5040828;28;20262;-82
2021/05/22 09:46:51;;;;;;;0.00;0.00;;;13.10;99.90;;;;;;5051182;28;20209;-84
2021/05/22 09:49:30;;;;;;;0.20;0.10;;;13.10;99.90;;;;;;5051396;28;20197;-83
2021/05/22 09:52:17;;;;;;;0.23;0.10;;;13.30;99.90;;;;;;5041389;28;20186;-83
2021/05/22 09:54:53;;;;;;;0.13;0.13;;;13.50;99.90;;;;;;5056365;28;20173;-83
2021/05/22 09:57:42;;;;;;;0.10;0.10;;;13.70;99.90;;;;;;5055886;28;20233;-82
2021/05/22 10:00:16;;;;;;;1.10;1.10;;;13.80;99.90;;;;;;5043771;28;20207;-84
2021/05/22 10:02:48;;;;;;;0.10;0.10;;;13.80;99.90;;;;;;5052786;28;20268;-82
2021/05/22 10:05:25;;;;;;;0.10;0.10;;;13.50;99.90;;;;;;5045655;28;20186;-83
2021/05/22 10:07:53;;;;;;;0.10;0.10;;;13.60;99.90;;;;;;5054538;28;20206;-82
2021/05/22 10:10:20;;;;;;;0.20;0.20;;;13.70;99.90;;;;;;5055361;28;20212;-83
2021/05/22 10:12:46;;;;;;;0.27;0.17;;;13.90;99.90;;;;;;5055078;28;20190;-83
2021/05/22 10:15:17;;;;;;;0.10;0.10;;;14.00;99.90;;;;;;5052797;28;20219;-82
2021/05/22 10:17:43;;;;;;;0.10;0.10;;;14.40;99.90;;;;;;5055154;28;20200;-83
2021/05/22 10:20:13;;;;;;;0.10;0.10;;;14.70;99.90;;;;;;5054274;28;20207;-83
2021/05/22 10:22:44;;;;;;;0.10;0.10;;;14.70;99.90;;;;;;5053878;28;20540;-83
2021/05/22 10:25:10;;;;;;;0.10;0.10;;;14.70;99.90;;;;;;5054618;28;20201;-82
2021/05/22 10:27:36;;;;;;;1.60;0.70;;;14.50;99.90;;;;;;5055757;28;20210;-82
2021/05/22 10:30:07;;;;;;;0.10;0.10;;;14.70;99.90;;;;;;5055403;28;20175;-83
2021/05/22 10:32:33;;;;;;;0.10;0.10;;;14.60;99.90;;;;;;5057883;28;20191;-82
2021/05/22 10:35:09;;;;;;;1.40;0.43;;;14.60;99.90;;;;;;5053519;28;20190;-84
2021/05/22 10:37:49;;;;;;;2.03;0.30;;;14.90;99.90;;;;;;5053366;28;20214;-82
2021/05/22 10:40:21;;;;;;;0.10;0.10;;;15.30;99.90;;;;;;5053541;28;20186;-84
2021/05/22 10:42:47;;;;;;;0.10;0.10;;;15.30;99.90;;;;;;5053949;28;20182;-83
2021/05/22 10:45:33;;;;;;;0.10;0.10;;;15.10;99.90;;;;;;5054435;28;20268;-83
2021/05/22 10:48:03;;;;;;;0.30;0.30;;;15.30;99.90;;;;;;5054490;28;20203;-82
2021/05/22 10:50:59;;;;;;;0.07;0.07;;;14.90;99.90;;;;;;5055750;28;20201;-84
2021/05/22 10:53:30;;;;;;;2.53;0.20;;;14.80;99.90;;;;;;5052664;28;20253;-83
2021/05/22 10:56:08;;;;;;;0.10;0.10;;;15.00;99.90;;;;;;5055950;28;20176;-83
2021/05/22 10:58:35;;;;;;;0.20;0.20;;;15.30;99.90;;;;;;5042942;28;20203;-84
2021/05/22 11:01:26;;;;;;;0.10;0.10;;;15.50;99.90;;;;;;5053879;28;20173;-83
2021/05/22 11:04:21;;;;;;;0.10;0.10;;;15.80;99.90;;;;;;5041378;28;20243;-82
2021/05/22 11:06:52;;;;;;;0.13;0.13;;;16.20;99.90;;;;;;5041705;28;20589;-83
2021/05/22 11:09:27;;;;;;;0.20;0.20;;;15.90;99.90;;;;;;5049652;28;20178;-83
2021/05/22 11:11:54;;;;;;;0.43;0.20;;;16.20;99.90;;;;;;5047870;28;20185;-82
2021/05/22 11:14:47;;;;;;;0.20;0.20;;;15.90;99.90;;;;;;5052941;28;20180;-84
2021/05/22 11:17:22;;;;;;;0.20;0.20;;;15.90;99.90;;;;;;5066119;28;20212;-83
2021/05/22 11:20:10;;;;;;;0.10;0.10;;;15.80;99.90;;;;;;5054062;28;20797;-82
2021/05/22 11:22:39;;;;;;;0.10;0.10;;;15.90;99.90;;;;;;5052028;28;20262;-83
2021/05/22 11:25:14;;;;;;;0.20;0.20;;;16.30;99.90;;;;;;5053914;28;20648;-84
2021/05/22 11:27:46;;;;;;;0.67;0.17;;;16.50;99.90;;;;;;5039184;28;20304;-84
2021/05/22 11:30:41;;;;;;;0.20;0.20;;;16.80;99.90;;;;;;5052930;28;20187;-83
2021/05/22 11:33:09;;;;;;;0.10;0.10;;;16.60;99.90;;;;;;5051416;28;20223;-82
2021/05/22 11:35:44;;;;;;;0.33;0.20;;;16.40;99.90;;;;;;5053416;28;20182;-83
2021/05/22 11:38:13;;;;;;;0.30;0.30;;;16.20;99.90;;;;;;5051858;28;20691;-83
2021/05/22 11:40:38;;;;;;;0.83;0.20;;;16.10;99.90;;;;;;5038811;28;20189;-83
2021/05/22 11:43:18;;;;;;;1.37;0.20;;;16.20;99.90;;;;;;5052637;28;20185;-83
2021/05/22 11:45:45;;;;;;;0.10;0.10;;;16.30;99.90;;;;;;5052992;28;20201;-83
2021/05/22 11:48:27;;;;;;;1.70;1.33;;;16.30;99.90;;;;;;5052953;28;20213;-82
2021/05/22 11:51:07;;;;;;;0.13;0.13;;;16.60;99.90;;;;;;5054272;28;20672;-83
2021/05/22 11:53:34;;;;;;;0.10;0.10;;;16.80;99.90;;;;;;5038102;28;20235;-83
2021/05/22 11:56:13;;;;;;;0.10;0.10;;;17.20;99.90;;;;;;5052012;28;20609;-84
2021/05/22 11:58:40;;;;;;;0.10;0.10;;;17.50;99.90;;;;;;5041556;28;20283;-83
2021/05/22 12:01:15;;;;;;;0.10;0.10;;;17.20;99.90;;;;;;5038781;28;20178;-83
2021/05/22 12:03:43;;;;;;;0.10;0.10;;;17.10;99.90;;;;;;5043530;28;20182;-83
2021/05/22 12:06:30;;;;;;;0.30;0.30;;;17.10;99.90;;;;;;5047975;28;20212;-83
2021/05/22 12:09:20;;;;;;;0.37;0.20;;;16.90;99.90;;;;;;5051030;28;20240;-83
2021/05/22 12:12:07;;;;;;;0.60;0.40;;;17.00;99.90;;;;;;5041985;28;20258;-83
2021/05/22 12:14:39;;;;;;;1.37;0.43;;;16.90;99.90;;;;;;5051270;28;20184;-82
2021/05/22 12:17:06;;;;;;;0.10;0.10;;;16.50;99.90;;;;;;5053609;28;20204;-83
2021/05/22 12:19:34;;;;;;;0.10;0.10;;;16.10;99.90;;;;;;5052123;28;20235;-83
2021/05/22 12:22:00;;;;;;;0.23;0.23;;;16.30;99.90;;;;;;5052606;28;20201;-83
2021/05/22 12:24:27;;;;;;;0.20;0.20;;;16.60;99.90;;;;;;5040014;28;20276;-84
2021/05/22 12:26:55;;;;;;;0.10;0.10;;;16.60;99.90;;;;;;5052787;28;20200;-84
2021/05/22 12:29:23;;;;;;;0.10;0.10;;;16.60;99.90;;;;;;5052687;28;20221;-83
2021/05/22 12:31:52;;;;;;;0.10;0.10;;;16.30;99.90;;;;;;5051372;28;20672;-83
2021/05/22 12:34:23;;;;;;;1.33;0.53;;;16.20;99.90;;;;;;5051592;28;20204;-83
2021/05/22 12:36:54;;;;;;;0.10;0.10;;;16.20;99.90;;;;;;5052139;28;20177;-83
2021/05/22 12:39:20;;;;;;;0.03;0.03;;;16.40;99.90;;;;;;5046013;28;20603;-83
2021/05/22 12:41:46;;;;;;;0.10;0.10;;;16.40;99.90;;;;;;5050905;28;20189;-83
2021/05/22 12:44:22;;;;;;;0.10;0.10;;;16.70;99.90;;;;;;5058220;28;20187;-82
2021/05/22 12:47:00;;;;;;;0.10;0.10;;;16.70;99.90;;;;;;5056352;28;20412;-83
2021/05/22 12:49:31;;;;;;;0.20;0.20;;;17.00;99.90;;;;;;5059314;28;20180;-82
2021/05/22 12:52:10;;;;;;;0.33;0.33;;;16.50;99.90;;;;;;5055562;28;20822;-82
2021/05/22 12:54:35;;;;;;;3.80;0.27;;;16.40;99.90;;;;;;5057660;28;20162;-83
2021/05/22 12:57:21;;;;;;;0.00;0.00;;;16.50;99.90;;;;;;5057400;28;20205;-84
2021/05/22 12:59:52;;;;;;;0.30;0.20;;;16.90;99.90;;;;;;5055908;28;20780;-82